Time;durP1;ratioP1;P1;durP2;ratioP2;P2;SDS_P1;SDS_P2;PMS_P1;PMS_P2;Temp;Humidity;BMP_temperature;BMP_pressure;BME280_temperature;BME280_humidity;BME280_pressure;Samples;Min_cycle;Max_cycle;Signal;HPM_P1;HPM_P2
2022/02/05 00:00:25;;;;;;;0.95;0.20;;;18.40;46.40;;;;;;5064039;28;20044;-52
2022/02/05 00:02:59;;;;;;;1.67;0.10;;;18.40;46.40;;;;;;5061976;28;20052;-49
2022/02/05 00:05:35;;;;;;;2.20;0.30;;;18.40;46.40;;;;;;5068065;28;20064;-54
2022/02/05 00:08:19;;;;;;;1.95;0.45;;;18.40;46.30;;;;;;5071335;28;20052;-50
2022/02/05 00:14:16;;;;;;;0.17;0.10;;;18.40;46.30;;;;;;4974522;28;20847;-51
2022/02/05 00:38:57;;;;;;;2.95;0.20;;;18.30;46.00;;;;;;5024838;28;20060;-49
2022/02/05 00:41:28;;;;;;;0.57;0.20;;;18.30;46.60;;;;;;5025496;28;20488;-52
2022/02/05 00:43:57;;;;;;;1.60;0.47;;;18.20;45.90;;;;;;5009302;28;20098;-50
2022/02/05 00:46:27;;;;;;;1.10;0.10;;;18.30;45.90;;;;;;5025101;28;20140;-49
2022/02/05 00:48:54;;;;;;;1.88;0.20;;;18.30;45.90;;;;;;5081346;28;20048;-51
2022/02/05 00:51:27;;;;;;;2.42;0.20;;;18.30;45.90;;;;;;5091320;28;20038;-51
2022/02/05 00:54:04;;;;;;;1.60;0.82;;;18.20;45.80;;;;;;5086404;28;20117;-53
2022/02/05 00:59:20;;;;;;;2.63;0.25;;;18.20;45.70;;;;;;5066259;28;20874;-51
2022/02/05 01:01:48;;;;;;;1.05;0.20;;;18.20;45.70;;;;;;5069086;28;20143;-52
2022/02/05 01:04:15;;;;;;;1.50;0.20;;;18.20;45.70;;;;;;5068491;28;20562;-51
2022/02/05 01:06:43;;;;;;;0.43;0.10;;;18.20;45.70;;;;;;5064260;28;20101;-50
2022/02/05 01:09:19;;;;;;;0.80;0.10;;;18.20;45.60;;;;;;5064148;28;20041;-47
2022/02/05 01:11:46;;;;;;;2.38;0.20;;;18.20;45.70;;;;;;5066207;28;20056;-51
2022/02/05 01:14:16;;;;;;;0.73;0.10;;;18.20;45.60;;;;;;5070715;28;20058;-51
2022/02/05 01:16:52;;;;;;;2.88;0.10;;;18.20;45.60;;;;;;5051785;28;20053;-52
2022/02/05 01:19:42;;;;;;;1.98;0.55;;;18.20;45.60;;;;;;5066567;28;20040;-51
2022/02/05 01:22:11;;;;;;;0.85;0.20;;;18.20;45.60;;;;;;5063548;28;20055;-47
2022/02/05 01:24:41;;;;;;;1.23;0.30;;;18.10;45.50;;;;;;5068088;28;20177;-48
2022/02/05 01:27:12;;;;;;;2.65;0.10;;;18.20;45.60;;;;;;5047565;28;20852;-50
2022/02/05 01:29:53;;;;;;;3.67;0.15;;;18.10;45.50;;;;;;5066299;28;20611;-51
2022/02/05 01:32:24;;;;;;;1.02;0.50;;;18.10;45.50;;;;;;5068562;28;20068;-50
2022/02/05 01:34:59;;;;;;;0.57;0.30;;;18.10;45.50;;;;;;5068625;28;20454;-47
2022/02/05 01:51:33;;;;;;;0.57;0.20;;;18.10;45.40;;;;;;5086063;28;20086;-51
2022/02/05 01:54:16;;;;;;;0.38;0.10;;;18.10;45.40;;;;;;5080639;28;20064;-50
2022/02/05 01:56:50;;;;;;;2.45;0.10;;;18.10;45.40;;;;;;5071251;28;20108;-50
2022/02/05 01:59:27;;;;;;;2.88;0.20;;;18.10;45.40;;;;;;5093213;28;20131;-47
2022/02/05 02:04:50;;;;;;;0.82;0.10;;;18.10;45.40;;;;;;5088992;28;20043;-48
2022/02/05 02:16:01;;;;;;;2.92;0.20;;;18.00;45.30;;;;;;5048915;28;20482;-47
2022/02/05 02:18:38;;;;;;;2.05;0.20;;;18.00;45.30;;;;;;5060710;28;20048;-49
2022/02/05 02:21:19;;;;;;;1.55;0.10;;;18.00;45.30;;;;;;5062983;28;20052;-49
2022/02/05 02:23:58;;;;;;;1.58;0.20;;;18.00;45.30;;;;;;5065748;28;20044;-50
2022/02/05 02:26:36;;;;;;;0.57;0.35;;;18.00;45.30;;;;;;5068735;28;20044;-49
2022/02/05 02:29:08;;;;;;;0.40;0.10;;;18.00;45.20;;;;;;5069155;28;20500;-48
2022/02/05 02:31:39;;;;;;;2.00;0.20;;;18.00;45.20;;;;;;5064197;28;20532;-50
2022/02/05 02:34:10;;;;;;;1.20;0.30;;;18.00;45.20;;;;;;5065753;28;20056;-52
2022/02/05 02:36:42;;;;;;;1.10;0.25;;;18.00;45.20;;;;;;5066611;28;20177;-49
2022/02/05 02:39:15;;;;;;;1.75;0.20;;;18.00;45.20;;;;;;5063486;28;20055;-51
2022/02/05 02:41:47;;;;;;;0.52;0.30;;;18.00;45.20;;;;;;5065604;28;20131;-53
2022/02/05 02:44:15;;;;;;;0.40;0.10;;;18.00;45.20;;;;;;5072534;28;20094;-51
2022/02/05 02:46:42;;;;;;;0.30;0.17;;;18.00;45.10;;;;;;5066599;28;20044;-49
2022/02/05 02:49:13;;;;;;;1.08;0.10;;;18.00;45.10;;;;;;5065549;28;20071;-48
2022/02/05 02:57:17;;;;;;;0.43;0.10;;;18.00;45.10;;;;;;5085389;28;20048;-52
2022/02/05 02:59:53;;;;;;;1.67;0.10;;;17.90;45.00;;;;;;5088499;28;20036;-48
2022/02/05 03:02:23;;;;;;;1.30;0.20;;;17.90;45.00;;;;;;5089841;28;20052;-49
2022/02/05 03:04:52;;;;;;;0.40;0.28;;;17.90;45.10;;;;;;5090387;28;20119;-50
2022/02/05 03:07:19;;;;;;;2.28;0.20;;;17.90;45.00;;;;;;5084380;28;20047;-47
2022/02/05 03:09:47;;;;;;;1.48;0.40;;;18.00;45.00;;;;;;5091180;28;20049;-48
2022/02/05 03:12:14;;;;;;;0.55;0.20;;;17.90;45.00;;;;;;5089885;28;20440;-48
2022/02/05 03:14:41;;;;;;;1.77;0.10;;;17.90;44.90;;;;;;5086103;28;20054;-48
2022/02/05 03:17:21;;;;;;;2.42;0.10;;;17.90;44.90;;;;;;5090394;28;20119;-49
2022/02/05 03:19:49;;;;;;;0.40;0.10;;;17.90;44.90;;;;;;5094975;28;20055;-48
2022/02/05 03:22:18;;;;;;;2.80;0.30;;;17.90;44.90;;;;;;5089349;28;20067;-46
2022/02/05 03:24:47;;;;;;;3.08;0.10;;;17.90;44.90;;;;;;5089371;28;20122;-48
2022/02/05 03:27:16;;;;;;;2.05;0.20;;;17.90;44.90;;;;;;5081714;28;20151;-44
2022/02/05 03:29:47;;;;;;;1.15;0.20;;;17.90;44.90;;;;;;5090397;28;20036;-46
2022/02/05 03:32:14;;;;;;;1.48;0.20;;;17.90;45.50;;;;;;5090960;28;20068;-45
2022/02/05 03:34:43;;;;;;;1.00;0.10;;;17.90;45.50;;;;;;5088068;28;20210;-46
2022/02/05 03:37:10;;;;;;;1.00;0.10;;;17.90;44.90;;;;;;5090835;28;20043;-46
2022/02/05 03:39:37;;;;;;;1.80;0.45;;;17.90;44.80;;;;;;5087467;28;20040;-47
2022/02/05 03:42:07;;;;;;;0.82;0.10;;;17.90;44.80;;;;;;5084904;28;20405;-47
2022/02/05 03:44:34;;;;;;;0.90;0.10;;;17.90;44.80;;;;;;5088700;28;20189;-46
2022/02/05 03:47:01;;;;;;;0.85;0.10;;;17.90;44.80;;;;;;5090325;28;20101;-45
2022/02/05 03:49:28;;;;;;;1.55;0.10;;;17.90;44.80;;;;;;5088363;28;20093;-52
2022/02/05 03:51:55;;;;;;;1.40;0.35;;;17.80;44.70;;;;;;5088193;28;20039;-45
2022/02/05 03:54:24;;;;;;;1.55;0.45;;;17.90;44.80;;;;;;5084641;28;20032;-45
2022/02/05 03:56:51;;;;;;;0.50;0.10;;;17.90;44.70;;;;;;5079469;28;20119;-45
2022/02/05 03:59:20;;;;;;;1.23;0.20;;;17.90;44.80;;;;;;5082552;28;20044;-45
2022/02/05 04:01:47;;;;;;;0.43;0.10;;;17.80;44.70;;;;;;5089237;28;20520;-44
2022/02/05 04:04:15;;;;;;;0.50;0.13;;;17.80;44.70;;;;;;5090484;28;20035;-46
2022/02/05 04:06:42;;;;;;;0.43;0.10;;;17.80;44.70;;;;;;5087500;28;20050;-46
2022/02/05 04:09:16;;;;;;;1.42;0.13;;;17.80;44.70;;;;;;5084544;28;20039;-49
2022/02/05 04:11:57;;;;;;;0.38;0.13;;;17.90;44.70;;;;;;5088749;28;20036;-47
2022/02/05 04:17:10;;;;;;;0.90;0.10;;;17.80;44.70;;;;;;5090847;28;20036;-49
2022/02/05 04:19:37;;;;;;;1.67;0.13;;;17.80;44.70;;;;;;5088055;28;20048;-48
2022/02/05 04:22:05;;;;;;;1.90;0.10;;;17.80;44.60;;;;;;5090751;28;20047;-50
2022/02/05 04:24:32;;;;;;;1.40;0.30;;;17.80;44.70;;;;;;5092866;28;20128;-48
2022/02/05 04:26:59;;;;;;;0.50;0.40;;;17.80;44.70;;;;;;5088392;28;20050;-48
2022/02/05 04:29:28;;;;;;;1.42;0.20;;;17.80;44.60;;;;;;5092856;28;20553;-47
2022/02/05 04:31:55;;;;;;;0.32;0.00;;;17.80;44.60;;;;;;5096137;28;20040;-45
2022/02/05 04:34:22;;;;;;;3.92;0.20;;;17.80;44.60;;;;;;5092120;28;20119;-47
2022/02/05 04:36:49;;;;;;;0.93;0.10;;;17.80;44.60;;;;;;5091284;28;20046;-51
2022/02/05 04:39:19;;;;;;;2.97;0.15;;;17.80;44.50;;;;;;5088366;28;20562;-48
2022/02/05 04:41:52;;;;;;;1.33;0.10;;;17.80;44.60;;;;;;5094383;28;20124;-47
2022/02/05 04:44:32;;;;;;;0.85;0.10;;;17.80;45.20;;;;;;5085807;28;20039;-46
2022/02/05 04:58:44;;;;;;;0.95;0.20;;;17.70;44.50;;;;;;5067778;28;20040;-45
2022/02/05 05:01:18;;;;;;;1.15;0.10;;;17.70;44.60;;;;;;5069109;28;20044;-46
2022/02/05 05:04:01;;;;;;;1.20;0.10;;;17.70;44.60;;;;;;5067049;28;20090;-51
2022/02/05 05:07:42;;;;;;;0.77;0.08;;;17.70;44.50;;;;;;5059947;28;20509;-45
2022/02/05 05:09:42;;;;;;;1.40;0.10;;;17.70;44.50;;;;;;5069016;28;20052;-45
2022/02/05 05:12:23;;;;;;;3.45;0.20;;;17.70;44.50;;;;;;5064654;28;20112;-46
2022/02/05 05:20:21;;;;;;;0.95;0.00;;;17.70;44.50;;;;;;5066492;28;20072;-49
2022/02/05 05:22:48;;;;;;;0.77;0.28;;;17.70;44.60;;;;;;5068967;28;20045;-46
2022/02/05 05:25:15;;;;;;;0.28;0.00;;;17.70;44.50;;;;;;5070299;28;20116;-46
2022/02/05 05:27:42;;;;;;;1.45;0.20;;;17.70;44.50;;;;;;5072894;28;20051;-48
2022/02/05 05:30:11;;;;;;;0.75;0.15;;;17.70;44.50;;;;;;5086712;28;20128;-48
2022/02/05 05:32:38;;;;;;;5.10;0.10;;;17.70;44.50;;;;;;5083322;28;20044;-46
2022/02/05 05:35:06;;;;;;;0.50;0.10;;;17.70;44.40;;;;;;5089929;28;20821;-45
2022/02/05 05:37:35;;;;;;;0.45;0.10;;;17.70;44.50;;;;;;5085878;28;20046;-47
2022/02/05 05:40:02;;;;;;;0.10;0.10;;;17.70;44.40;;;;;;5095511;28;20720;-45
2022/02/05 05:42:35;;;;;;;1.27;0.20;;;17.70;45.00;;;;;;5091362;28;20047;-45
2022/02/05 05:45:24;;;;;;;0.65;0.30;;;17.70;44.40;;;;;;5081545;28;20511;-45
2022/02/05 05:47:54;;;;;;;0.40;0.20;;;17.70;44.40;;;;;;5087302;28;20041;-45
2022/02/05 05:53:19;;;;;;;3.03;0.17;;;17.70;44.40;;;;;;5037510;28;20581;-46
2022/02/05 05:55:47;;;;;;;2.03;0.10;;;17.70;44.40;;;;;;5030360;28;20060;-46
2022/02/05 05:58:15;;;;;;;0.40;0.05;;;17.60;44.40;;;;;;5032989;28;20045;-47
2022/02/05 06:00:43;;;;;;;2.60;0.45;;;17.70;44.40;;;;;;5029984;28;20052;-46
2022/02/05 06:03:10;;;;;;;1.77;0.10;;;17.60;44.40;;;;;;5039029;28;20457;-46
2022/02/05 06:05:38;;;;;;;0.28;0.10;;;17.60;44.30;;;;;;5027308;28;20799;-45
2022/02/05 06:08:05;;;;;;;0.15;0.10;;;17.60;44.30;;;;;;5033080;28;20053;-44
2022/02/05 06:10:34;;;;;;;0.35;0.20;;;17.70;44.40;;;;;;5036865;28;20045;-45
2022/02/05 06:13:01;;;;;;;3.33;0.10;;;17.70;44.40;;;;;;5032556;28;20044;-45
2022/02/05 06:15:28;;;;;;;0.40;0.17;;;17.60;44.30;;;;;;5028154;28;20146;-48
2022/02/05 06:17:55;;;;;;;1.23;0.40;;;17.60;44.30;;;;;;5028548;28;20067;-46
2022/02/05 06:20:22;;;;;;;1.38;0.10;;;17.60;44.30;;;;;;5043774;28;20045;-45
2022/02/05 06:22:50;;;;;;;0.50;0.10;;;17.60;44.30;;;;;;5031200;28;20045;-45
2022/02/05 06:25:17;;;;;;;0.70;0.10;;;17.60;44.30;;;;;;5024985;28;20054;-45
2022/02/05 06:27:46;;;;;;;2.47;0.10;;;17.60;44.30;;;;;;5064192;28;20055;-51
2022/02/05 06:30:13;;;;;;;2.78;0.30;;;17.60;44.30;;;;;;5085496;28;20139;-46
2022/02/05 06:32:41;;;;;;;1.65;0.22;;;17.60;44.30;;;;;;5081895;28;20058;-46
2022/02/05 06:35:10;;;;;;;0.13;0.05;;;17.60;44.30;;;;;;5086501;28;20488;-48
2022/02/05 06:37:37;;;;;;;1.25;0.10;;;17.60;44.30;;;;;;5084715;28;20562;-51
2022/02/05 06:40:05;;;;;;;3.15;0.20;;;17.60;44.30;;;;;;5087683;28;20043;-46
2022/02/05 06:42:33;;;;;;;2.53;0.13;;;17.60;44.40;;;;;;5084335;28;20128;-46
2022/02/05 06:45:01;;;;;;;0.57;0.00;;;17.60;44.30;;;;;;5087611;28;20548;-47
2022/02/05 06:47:28;;;;;;;2.03;0.15;;;17.60;44.90;;;;;;5086496;28;20040;-47
2022/02/05 06:49:55;;;;;;;1.48;0.10;;;17.60;44.30;;;;;;5102720;27;20046;-50
2022/02/05 06:52:22;;;;;;;0.88;0.65;;;17.60;44.30;;;;;;5088513;28;20039;-47
2022/02/05 06:54:49;;;;;;;0.20;0.10;;;17.60;44.30;;;;;;5089737;28;20036;-46
2022/02/05 06:57:17;;;;;;;0.90;0.10;;;17.60;44.30;;;;;;5083528;28;20040;-45
2022/02/05 06:59:44;;;;;;;1.08;0.10;;;17.60;44.30;;;;;;5088409;28;20119;-45
2022/02/05 07:02:12;;;;;;;0.88;0.20;;;17.60;44.30;;;;;;5087174;28;20040;-46
2022/02/05 07:04:39;;;;;;;1.42;0.10;;;17.60;44.30;;;;;;5083625;28;20072;-47
2022/02/05 07:07:07;;;;;;;0.40;0.20;;;17.60;44.30;;;;;;5083632;28;20195;-46
2022/02/05 07:09:34;;;;;;;0.25;0.00;;;17.60;44.30;;;;;;5082531;28;20067;-51
2022/02/05 07:12:01;;;;;;;0.20;0.10;;;17.60;44.30;;;;;;5084991;28;20036;-45
2022/02/05 07:14:34;;;;;;;1.35;0.00;;;17.60;44.30;;;;;;5085731;28;20048;-47
2022/02/05 07:17:07;;;;;;;1.88;0.20;;;17.60;44.30;;;;;;5085460;28;20781;-46
2022/02/05 07:19:51;;;;;;;0.15;0.08;;;17.60;44.30;;;;;;5084515;28;20040;-46
2022/02/05 07:22:19;;;;;;;1.98;0.03;;;17.60;44.30;;;;;;5082924;28;20048;-50
2022/02/05 07:24:59;;;;;;;2.40;0.03;;;17.60;44.40;;;;;;5087597;28;20043;-45
2022/02/05 07:30:11;;;;;;;0.55;0.17;;;17.50;44.30;;;;;;5090429;28;20435;-49
2022/02/05 07:32:38;;;;;;;0.10;0.10;;;17.50;44.30;;;;;;5086823;28;20150;-49
2022/02/05 07:35:08;;;;;;;0.57;0.57;;;17.50;44.30;;;;;;5090120;28;20048;-47
2022/02/05 07:37:35;;;;;;;1.35;0.47;;;17.60;44.40;;;;;;5090644;28;20051;-47
2022/02/05 07:40:02;;;;;;;2.03;0.00;;;17.60;44.30;;;;;;5087858;28;20688;-50
2022/02/05 07:42:29;;;;;;;1.33;0.50;;;17.60;44.30;;;;;;5085237;28;20048;-51
2022/02/05 07:44:58;;;;;;;1.05;0.30;;;17.60;44.30;;;;;;5085878;28;20044;-48
2022/02/05 07:47:28;;;;;;;0.10;0.00;;;17.60;44.30;;;;;;5093860;28;20475;-47
2022/02/05 07:49:55;;;;;;;0.93;0.00;;;17.60;44.30;;;;;;5089901;28;20071;-46
2022/02/05 07:52:23;;;;;;;1.17;0.10;;;17.60;44.20;;;;;;5089064;28;20120;-49
2022/02/05 07:54:51;;;;;;;1.15;0.47;;;17.60;44.30;;;;;;5088202;28;20545;-51
2022/02/05 07:57:18;;;;;;;1.42;0.35;;;17.60;44.20;;;;;;5086429;28;20040;-49
2022/02/05 07:59:45;;;;;;;1.38;0.17;;;17.60;44.20;;;;;;5091649;28;20298;-51
2022/02/05 08:02:12;;;;;;;0.93;0.10;;;17.70;44.20;;;;;;5098727;28;20500;-48
2022/02/05 08:04:39;;;;;;;0.63;0.30;;;17.70;44.20;;;;;;5092989;28;20043;-50
2022/02/05 08:07:08;;;;;;;2.33;0.40;;;17.70;44.50;;;;;;5092059;28;20102;-47
2022/02/05 08:09:50;;;;;;;0.45;0.10;;;17.60;44.10;;;;;;5092594;28;20040;-46
2022/02/05 08:12:19;;;;;;;0.98;0.05;;;17.70;44.10;;;;;;5089997;28;20132;-48
2022/02/05 08:14:47;;;;;;;2.08;0.32;;;17.70;44.10;;;;;;5086839;28;20036;-45
2022/02/05 08:17:20;;;;;;;0.80;0.52;;;17.70;44.10;;;;;;5094329;28;20084;-46
2022/02/05 08:19:47;;;;;;;0.20;0.17;;;17.70;44.00;;;;;;5091737;28;20422;-48
2022/02/05 08:22:15;;;;;;;1.23;0.43;;;17.70;44.00;;;;;;5092532;28;20059;-44
2022/02/05 08:24:43;;;;;;;1.08;0.20;;;17.70;44.00;;;;;;5089628;28;20046;-46
2022/02/05 08:27:11;;;;;;;1.00;0.10;;;17.70;43.90;;;;;;5091074;28;20105;-45
2022/02/05 08:29:44;;;;;;;1.10;0.10;;;17.70;43.90;;;;;;5094127;28;20044;-47
2022/02/05 08:32:11;;;;;;;0.47;0.47;;;17.70;43.90;;;;;;5094497;28;20063;-46
2022/02/05 08:34:39;;;;;;;0.98;0.10;;;17.70;43.90;;;;;;5090733;28;20151;-49
2022/02/05 08:37:06;;;;;;;6.22;0.15;;;17.70;43.90;;;;;;5089491;28;20050;-49
2022/02/05 08:39:33;;;;;;;0.77;0.10;;;17.80;43.90;;;;;;5085124;28;20545;-46
2022/02/05 08:42:02;;;;;;;1.17;0.10;;;17.80;43.90;;;;;;5081215;28;20028;-45
2022/02/05 08:44:30;;;;;;;1.10;0.05;;;17.80;43.90;;;;;;5086228;28;20040;-47
2022/02/05 08:46:57;;;;;;;1.98;0.10;;;17.80;43.80;;;;;;5098267;28;20044;-46
2022/02/05 08:49:28;;;;;;;0.90;0.10;;;17.80;43.90;;;;;;5092260;28;20047;-47
2022/02/05 08:51:57;;;;;;;0.35;0.20;;;17.80;43.80;;;;;;5091981;28;20035;-48
2022/02/05 08:54:24;;;;;;;0.40;0.40;;;17.80;43.80;;;;;;5090351;28;20039;-49
2022/02/05 08:56:53;;;;;;;1.35;0.30;;;17.80;43.70;;;;;;5086747;28;20036;-46
2022/02/05 08:59:23;;;;;;;1.05;0.15;;;17.90;43.80;;;;;;5086392;28;20500;-47
2022/02/05 09:01:55;;;;;;;0.98;0.30;;;17.90;43.70;;;;;;5091865;28;20089;-46
2022/02/05 09:04:30;;;;;;;1.90;0.38;;;17.90;43.70;;;;;;5093428;28;20043;-49
2022/02/05 09:06:59;;;;;;;1.77;0.10;;;17.90;43.70;;;;;;5092095;28;20052;-50
2022/02/05 09:09:37;;;;;;;0.20;0.08;;;17.90;43.70;;;;;;5086381;28;20794;-49
2022/02/05 09:12:18;;;;;;;0.10;0.10;;;17.90;43.70;;;;;;5089292;28;20067;-47
2022/02/05 09:14:49;;;;;;;1.58;0.22;;;17.90;43.60;;;;;;5093382;28;20040;-47
2022/02/05 09:17:17;;;;;;;1.23;0.10;;;17.90;43.60;;;;;;5093585;28;20123;-48
2022/02/05 09:19:45;;;;;;;0.50;0.10;;;18.00;43.60;;;;;;5091244;28;20309;-51
2022/02/05 09:22:13;;;;;;;0.73;0.03;;;18.00;44.20;;;;;;5093092;28;20424;-45
2022/02/05 09:24:40;;;;;;;0.52;0.47;;;18.00;43.60;;;;;;5091233;28;20028;-46
2022/02/05 09:27:11;;;;;;;1.20;0.10;;;18.00;43.50;;;;;;5087311;28;20119;-49
2022/02/05 09:29:45;;;;;;;0.20;0.00;;;18.00;43.50;;;;;;5090928;28;20048;-46
2022/02/05 09:32:13;;;;;;;1.27;0.63;;;18.10;43.50;;;;;;5093429;28;20132;-50
2022/02/05 09:34:41;;;;;;;1.48;0.10;;;18.10;43.50;;;;;;5091121;28;20040;-46
2022/02/05 09:37:08;;;;;;;1.08;0.40;;;18.10;43.40;;;;;;5090860;28;20039;-48
2022/02/05 09:39:35;;;;;;;1.00;0.10;;;18.10;43.40;;;;;;5088119;28;20050;-48
2022/02/05 09:42:02;;;;;;;0.85;0.00;;;18.10;43.30;;;;;;5092848;28;20462;-46
2022/02/05 09:44:30;;;;;;;2.25;0.10;;;18.20;43.90;;;;;;5090684;28;20040;-49
2022/02/05 09:46:57;;;;;;;1.38;0.65;;;18.20;43.40;;;;;;5091347;28;20635;-45
2022/02/05 09:49:27;;;;;;;0.60;0.10;;;18.20;43.20;;;;;;5093375;28;20081;-49
2022/02/05 09:52:06;;;;;;;0.40;0.10;;;18.20;43.20;;;;;;5091114;28;20047;-45
2022/02/05 09:54:35;;;;;;;0.63;0.20;;;18.20;43.10;;;;;;5087574;28;20127;-45
2022/02/05 09:57:03;;;;;;;0.82;0.10;;;18.30;43.20;;;;;;5089229;28;20101;-46
2022/02/05 09:59:38;;;;;;;0.75;0.10;;;18.30;43.10;;;;;;5093286;28;20036;-48
2022/02/05 10:02:19;;;;;;;1.52;0.43;;;18.30;43.10;;;;;;5091351;28;20132;-50
2022/02/05 10:04:57;;;;;;;0.65;0.10;;;18.40;43.00;;;;;;5090379;28;20036;-48
2022/02/05 10:07:26;;;;;;;0.63;0.35;;;18.40;43.10;;;;;;5092207;28;20138;-47
2022/02/05 10:09:57;;;;;;;3.40;0.10;;;18.40;43.00;;;;;;5091015;28;20040;-50
2022/02/05 10:12:24;;;;;;;2.47;0.40;;;18.40;43.00;;;;;;5086744;28;20045;-45
2022/02/05 10:14:55;;;;;;;1.42;0.10;;;18.40;42.90;;;;;;5086685;28;20042;-46
2022/02/05 10:17:37;;;;;;;1.13;0.10;;;18.50;42.90;;;;;;5087992;28;20143;-48
2022/02/05 10:20:07;;;;;;;1.17;0.10;;;18.50;42.90;;;;;;5090851;28;20074;-48
2022/02/05 10:22:39;;;;;;;0.88;0.20;;;18.50;42.80;;;;;;5090081;28;20040;-48
2022/02/05 10:25:18;;;;;;;1.30;0.35;;;18.60;42.80;;;;;;5092163;28;20036;-46
2022/02/05 10:27:46;;;;;;;2.92;0.10;;;18.60;42.70;;;;;;5084678;28;20041;-51
2022/02/05 10:30:18;;;;;;;0.88;0.10;;;18.60;42.70;;;;;;5086253;28;20616;-50
2022/02/05 10:32:49;;;;;;;1.60;0.35;;;18.70;42.70;;;;;;5090466;28;20047;-46
2022/02/05 10:35:24;;;;;;;1.65;0.15;;;18.70;42.60;;;;;;5094012;28;20047;-51
2022/02/05 10:37:57;;;;;;;1.30;0.10;;;18.70;42.50;;;;;;5090979;28;20071;-46
2022/02/05 10:40:40;;;;;;;1.38;0.25;;;18.70;42.50;;;;;;5090566;28;20060;-50
2022/02/05 10:43:07;;;;;;;1.55;0.20;;;18.80;42.50;;;;;;5091813;28;20532;-45
2022/02/05 10:45:44;;;;;;;1.13;0.20;;;18.80;42.40;;;;;;5090897;28;20496;-50
2022/02/05 10:48:13;;;;;;;2.50;0.30;;;18.90;42.40;;;;;;5079834;28;20186;-48
2022/02/05 10:50:42;;;;;;;1.38;0.30;;;19.00;42.40;;;;;;5089704;28;20424;-44
2022/02/05 10:53:14;;;;;;;2.28;0.20;;;19.00;42.30;;;;;;5093893;28;20044;-47
2022/02/05 10:55:54;;;;;;;1.10;0.20;;;19.00;42.20;;;;;;5090309;28;20519;-46
2022/02/05 10:58:36;;;;;;;2.30;0.32;;;19.10;42.80;;;;;;5088404;28;20131;-46
2022/02/05 11:07:03;;;;;;;1.58;0.52;;;19.20;42.10;;;;;;5083390;28;20039;-50
2022/02/05 11:09:30;;;;;;;1.90;0.20;;;19.30;42.10;;;;;;5079771;28;20060;-45
2022/02/05 11:20:23;;;;;;;3.40;0.20;;;19.40;41.80;;;;;;5091235;28;20036;-52
2022/02/05 11:22:55;;;;;;;4.93;0.63;;;19.50;41.80;;;;;;5088320;28;20052;-48
2022/02/05 11:25:23;;;;;;;0.90;0.20;;;19.50;41.70;;;;;;5090461;28;20040;-51
2022/02/05 11:27:51;;;;;;;1.45;0.95;;;19.60;42.20;;;;;;5089864;28;20048;-45
2022/02/05 11:30:36;;;;;;;3.97;0.70;;;19.60;41.60;;;;;;5085251;28;20040;-45
2022/02/05 11:33:07;;;;;;;1.90;0.50;;;19.70;41.50;;;;;;5083873;28;20196;-50
2022/02/05 11:35:47;;;;;;;3.17;0.40;;;19.70;41.50;;;;;;5089962;28;20036;-49
2022/02/05 11:38:28;;;;;;;6.00;0.88;;;19.80;41.40;;;;;;5089039;28;20047;-50
2022/02/05 11:40:56;;;;;;;2.28;0.85;;;19.90;41.40;;;;;;5087567;28;20117;-48
2022/02/05 11:43:25;;;;;;;5.22;0.68;;;19.90;41.30;;;;;;5091663;28;20416;-47
2022/02/05 11:46:12;;;;;;;1.25;0.70;;;19.90;41.20;;;;;;5089423;28;20422;-50
2022/02/05 11:48:42;;;;;;;2.92;0.63;;;20.00;41.10;;;;;;5084533;28;20044;-48
2022/02/05 11:51:14;;;;;;;1.73;0.50;;;20.00;41.10;;;;;;5087348;28;20036;-49
2022/02/05 11:54:14;;;;;;;3.53;1.15;;;20.10;41.00;;;;;;5086998;28;20044;-49
2022/02/05 11:56:52;;;;;;;2.08;0.22;;;20.20;41.00;;;;;;5083582;28;20042;-51
2022/02/05 11:59:22;;;;;;;1.80;1.00;;;20.20;41.00;;;;;;5089144;28;20163;-50
2022/02/05 12:01:50;;;;;;;3.22;0.30;;;20.20;40.90;;;;;;5094235;28;20051;-47
2022/02/05 12:04:20;;;;;;;3.50;0.57;;;20.30;40.90;;;;;;5084750;28;20509;-52
2022/02/05 12:06:50;;;;;;;3.88;0.85;;;20.30;40.80;;;;;;5081239;28;20058;-52
2022/02/05 12:09:39;;;;;;;4.55;1.05;;;20.40;40.80;;;;;;5084749;28;20464;-47
2022/02/05 12:12:38;;;;;;;0.95;0.30;;;20.50;40.70;;;;;;5082698;28;20040;-49
2022/02/05 12:15:25;;;;;;;3.92;0.22;;;20.50;40.70;;;;;;5079495;28;20407;-50
2022/02/05 12:21:08;;;;;;;1.77;0.57;;;20.60;40.70;;;;;;5078328;28;20036;-48
2022/02/05 12:27:01;;;;;;;2.10;0.40;;;20.70;40.50;;;;;;5003908;28;20049;-49
2022/02/05 12:29:31;;;;;;;1.95;0.25;;;20.70;40.60;;;;;;5027285;28;20049;-53
2022/02/05 12:31:59;;;;;;;1.55;0.35;;;20.80;40.50;;;;;;5027289;28;20197;-50
2022/02/05 12:34:35;;;;;;;1.95;0.73;;;20.80;40.40;;;;;;5024295;28;20053;-52
2022/02/05 12:37:03;;;;;;;1.13;0.20;;;21.00;40.50;;;;;;5029201;28;20048;-47
2022/02/05 12:39:33;;;;;;;1.52;0.90;;;21.00;40.50;;;;;;5019338;28;20476;-52
2022/02/05 12:42:14;;;;;;;2.10;0.38;;;21.00;40.40;;;;;;5015606;28;20041;-45
2022/02/05 12:44:42;;;;;;;2.63;1.10;;;21.10;40.40;;;;;;5025912;28;20071;-46
2022/02/05 12:47:16;;;;;;;2.55;0.40;;;21.10;40.30;;;;;;5034505;28;20111;-48
2022/02/05 12:49:51;;;;;;;1.80;0.20;;;21.20;40.30;;;;;;5012683;28;20049;-45
2022/02/05 12:52:24;;;;;;;1.00;0.20;;;21.20;40.20;;;;;;5027893;28;20231;-47
2022/02/05 12:54:56;;;;;;;0.93;0.45;;;21.30;40.30;;;;;;5030720;28;20513;-46
2022/02/05 12:57:26;;;;;;;1.88;0.10;;;21.30;40.20;;;;;;5029965;28;20091;-49
2022/02/05 12:59:53;;;;;;;3.17;0.63;;;21.40;40.20;;;;;;5032732;28;20658;-47
2022/02/05 13:02:23;;;;;;;1.55;0.50;;;21.40;40.10;;;;;;5092554;28;20036;-46
2022/02/05 13:04:51;;;;;;;1.50;0.55;;;21.50;40.10;;;;;;5096804;28;20154;-48
2022/02/05 13:07:21;;;;;;;0.43;0.13;;;21.50;40.00;;;;;;5092168;28;20056;-47
2022/02/05 13:09:51;;;;;;;2.50;1.38;;;21.60;40.00;;;;;;5084186;28;20114;-46
2022/02/05 13:12:22;;;;;;;1.27;0.40;;;21.60;39.90;;;;;;5084503;28;20142;-47
2022/02/05 13:14:55;;;;;;;1.77;0.30;;;21.70;39.90;;;;;;5092891;28;20047;-48
2022/02/05 13:17:32;;;;;;;2.63;0.65;;;21.70;39.80;;;;;;5089273;28;20105;-49
2022/02/05 13:20:23;;;;;;;1.30;0.40;;;21.70;39.70;;;;;;5092591;28;20600;-48
2022/02/05 13:25:47;;;;;;;2.13;0.22;;;21.80;39.60;;;;;;5090410;28;20050;-48
2022/02/05 13:28:32;;;;;;;0.82;0.20;;;21.90;39.60;;;;;;5090857;28;20649;-49
2022/02/05 13:34:02;;;;;;;1.60;0.40;;;22.00;39.50;;;;;;5087075;28;20043;-47
2022/02/05 13:36:45;;;;;;;1.45;0.30;;;22.00;39.50;;;;;;5087630;28;20063;-50
2022/02/05 13:39:43;;;;;;;2.75;0.20;;;22.10;39.50;;;;;;5090112;28;20040;-49
2022/02/05 13:42:18;;;;;;;2.28;0.30;;;22.10;39.40;;;;;;5087240;28;20567;-50
2022/02/05 13:44:55;;;;;;;1.05;0.30;;;22.20;39.40;;;;;;5087582;28;20420;-50
2022/02/05 13:47:25;;;;;;;1.45;0.40;;;22.20;39.30;;;;;;5092252;28;20075;-48
2022/02/05 13:50:04;;;;;;;2.92;0.47;;;22.20;39.20;;;;;;5093627;28;20047;-46
2022/02/05 13:52:36;;;;;;;1.35;0.10;;;22.30;39.10;;;;;;5088848;28;20048;-45
2022/02/05 13:55:17;;;;;;;0.80;0.10;;;22.30;39.10;;;;;;5090331;28;20051;-45
2022/02/05 13:58:02;;;;;;;0.80;0.22;;;22.40;39.10;;;;;;5089283;28;20828;-47
2022/02/05 14:00:44;;;;;;;0.45;0.20;;;22.40;38.90;;;;;;5091764;28;20048;-48
2022/02/05 14:03:13;;;;;;;0.55;0.30;;;22.50;39.00;;;;;;5086788;28;20051;-46
2022/02/05 14:05:45;;;;;;;1.33;0.10;;;22.40;38.80;;;;;;5090288;28;20043;-46
2022/02/05 14:08:24;;;;;;;1.80;0.10;;;22.50;38.80;;;;;;5094064;28;20044;-47
2022/02/05 14:10:55;;;;;;;1.67;0.80;;;22.60;38.80;;;;;;5091447;28;20051;-47
2022/02/05 14:13:22;;;;;;;1.45;0.10;;;22.60;38.80;;;;;;5085013;28;20040;-45
2022/02/05 14:15:54;;;;;;;0.50;0.40;;;22.60;38.70;;;;;;5089910;28;20633;-45
2022/02/05 14:18:23;;;;;;;0.45;0.10;;;22.60;38.70;;;;;;5091952;28;20348;-45
2022/02/05 14:20:52;;;;;;;0.95;0.20;;;22.70;38.60;;;;;;5086642;28;20044;-49
2022/02/05 14:23:22;;;;;;;1.05;0.22;;;22.70;38.60;;;;;;5091568;28;20703;-48
2022/02/05 14:25:57;;;;;;;2.58;0.17;;;22.70;38.50;;;;;;5092550;28;20045;-46
2022/02/05 14:28:32;;;;;;;1.02;0.10;;;22.80;38.50;;;;;;5090381;28;20052;-47
2022/02/05 14:31:07;;;;;;;0.57;0.20;;;22.80;38.40;;;;;;5084508;28;20113;-45
2022/02/05 14:33:48;;;;;;;0.85;0.20;;;22.80;38.40;;;;;;5087299;28;20040;-51
2022/02/05 14:36:40;;;;;;;2.40;0.30;;;22.90;38.40;;;;;;5092037;28;20050;-46
2022/02/05 14:41:55;;;;;;;0.80;0.10;;;22.90;38.30;;;;;;5082433;28;20047;-48
2022/02/05 14:44:23;;;;;;;0.77;0.75;;;22.90;38.20;;;;;;5090449;28;20456;-52
2022/02/05 14:46:51;;;;;;;2.70;0.10;;;22.90;38.20;;;;;;5091224;28;20047;-50
2022/02/05 14:49:20;;;;;;;0.65;0.43;;;22.90;38.10;;;;;;5088463;28;20175;-50
2022/02/05 14:51:47;;;;;;;1.58;0.68;;;22.90;38.00;;;;;;5088416;28;20035;-51
2022/02/05 14:54:14;;;;;;;0.80;0.17;;;23.00;38.00;;;;;;5091578;28;20587;-52
2022/02/05 14:56:42;;;;;;;0.50;0.20;;;23.00;38.00;;;;;;5086765;28;20058;-52
2022/02/05 14:59:09;;;;;;;2.38;0.20;;;23.00;37.90;;;;;;5091309;28;20063;-50
2022/02/05 15:01:37;;;;;;;1.83;0.30;;;23.10;37.90;;;;;;5092333;28;20040;-50
2022/02/05 15:04:04;;;;;;;1.25;0.40;;;23.10;37.90;;;;;;5090029;28;20492;-49